Alkor — DBND — position and weather

sailwx.info

Track history (hours):
 
Tides and Currents Weather Stations Pressure Air Temp Water Temp Dewpoint Dewpoint Depression Visibility Wind Speed Wind Dir Waves Ship Positions

Oceanographic research ship Alkor (Germany)

Ship's website: http://www.briese.de/

Detailed information on ship capabilities available from University of Delaware's Ocean Information Center.

Last reported at 2020-Sep-20 00:00 UTC. Time now 2020-Sep-20 02:13 UTC.
Position N 55°09' E 015°19'.

Length 55 m; draft 4.2 m.

Type: Ship. MMSI: 211216512.

Date/timePositionNaut miles runAvg speedWind from/ knotsBaromVisibWave heightAir tempDewpointWater temp
2020-Sep-20 00:00N 55°09' E 015°19'14 4.0
2020-Sep-19 20:31N 55°20' E 015°02'6 4.0
2020-Sep-19 18:58N 55°24' E 014°55'4 2.5
2020-Sep-19 17:31N 55°26' E 014°49'3 2.5
2020-Sep-19 16:30N 55°23' E 014°51'3 1.2
2020-Sep-19 13:59N 55°26' E 014°50'12 4.0
2020-Sep-19 11:00N 55°17' E 014°37'4 4.0
2020-Sep-19 10:01N 55°14' E 014°33'10 4.0
2020-Sep-19 07:26N 55°06' E 014°22'2 4.1
2020-Sep-19 07:00N 55°04' E 014°20'63 5.7
2020-Sep-18 20:00N 54°40' E 012°40'8 6.8
2020-Sep-18 18:53N 54°35' E 012°29'6 6.7
2020-Sep-18 18:00N 54°32' E 012°20'21 7.0
2020-Sep-18 15:00N 54°22' E 011°48'7 4.9
2020-Sep-18 13:30N 54°22' E 011°36'11 3.7
2020-Sep-18 10:31N 54°29' E 011°21'3210.6
2020-Sep-18 07:30N 54°29' E 010°26'611.2
2020-Sep-18 07:01N 54°27' E 010°17'8 3.7
2020-Sep-18 04:51N 54°20' E 010°11'0 0.0
2020-Sep-18 03:00N 54°20' E 010°11'0 0.0
2020-Sep-18 01:24N 54°20' E 010°11'0 0.0
2020-Sep-18 00:54N 54°20' E 010°11'0 0.0
2020-Sep-17 19:30N 54°20' E 010°11'0 0.0
2020-Sep-17 17:00N 54°20' E 010°11'0 0.0
2020-Sep-17 15:30N 54°20' E 010°11'0 0.0
2020-Sep-17 14:30N 54°20' E 010°11'0 0.0
2020-Sep-17 11:51N 54°20' E 010°11'0 0.0
2020-Sep-17 07:54N 54°20' E 010°11'0 0.0
2020-Sep-17 07:27N 54°20' E 010°11'0 0.0
2020-Sep-17 06:57N 54°20' E 010°11'0 0.0
2020-Sep-17 06:27N 54°20' E 010°11'1 0.3
2020-Sep-17 03:29N 54°20' E 010°09'0 0.0
2020-Sep-17 02:50N 54°20' E 010°09'0 0.0
2020-Sep-17 01:20N 54°20' E 010°09'0 0.0
2020-Sep-17 00:53N 54°20' E 010°09'0 0.0
2020-Sep-17 00:23N 54°20' E 010°09'0 0.0
2020-Sep-16 23:50N 54°20' E 010°09'0 0.0
2020-Sep-16 20:26N 54°20' E 010°09'0 0.0
2020-Sep-16 18:26N 54°20' E 010°09'0 0.0
2020-Sep-16 17:56N 54°20' E 010°09'0 0.0
2020-Sep-16 16:59N 54°20' E 010°09'0 0.0
2020-Sep-16 16:26N 54°20' E 010°09'0 0.0
2020-Sep-16 11:59N 54°20' E 010°09'0 0.0
2020-Sep-16 06:56N 54°20' E 010°09'0 0.0
2020-Sep-16 04:59N 54°20' E 010°09'0 0.0
2020-Sep-16 04:26N 54°20' E 010°09'0 0.0
2020-Sep-16 03:59N 54°20' E 010°09'0 0.0
2020-Sep-16 02:59N 54°20' E 010°09'0 0.0
2020-Sep-15 23:59N 54°20' E 010°09'0 0.0
2020-Sep-15 23:29N 54°20' E 010°09'0 0.0
2020-Sep-15 22:29N 54°20' E 010°09'0 0.0
2020-Sep-15 20:29N 54°20' E 010°09'0 0.0
2020-Sep-15 13:56N 54°20' E 010°09'0 0.0
2020-Sep-15 13:26N 54°20' E 010°09'0 0.0
2020-Sep-15 12:00N 54°20' E 010°09'0 0.0
2020-Sep-15 09:30N 54°20' E 010°09'0 0.0
2020-Sep-15 07:30N 54°20' E 010°09'1 0.3
2020-Sep-15 05:29N 54°19' E 010°09'0 0.0
2020-Sep-15 02:59N 54°19' E 010°09'0 0.0
2020-Sep-15 02:29N 54°19' E 010°09'0 0.0
2020-Sep-14 20:59N 54°19' E 010°09'0 0.0
2020-Sep-14 19:59N 54°19' E 010°09'0 0.0
2020-Sep-14 14:29N 54°19' E 010°09'0 0.0
2020-Sep-14 12:20N 54°19' E 010°09'0 0.0
2020-Sep-14 09:59N 54°19' E 010°09'1 0.4
2020-Sep-14 06:30N 54°20' E 010°11'1 0.8
2020-Sep-14 05:31N 54°20' E 010°09'0 0.3
2020-Sep-14 04:53N 54°20' E 010°09'0 0.0
2020-Sep-14 03:53N 54°20' E 010°09'0 0.0
2020-Sep-14 03:23N 54°20' E 010°09'0 0.0
2020-Sep-14 02:53N 54°20' E 010°09'0 0.0
2020-Sep-14 02:23N 54°20' E 010°09'0 0.0
2020-Sep-14 00:56N 54°20' E 010°09'0 0.0
2020-Sep-13 22:29N 54°20' E 010°09'0 0.0
2020-Sep-13 21:59N 54°20' E 010°09'0 0.0
2020-Sep-13 21:29N 54°20' E 010°09'0 0.0
2020-Sep-13 15:59N 54°20' E 010°09'1 1.5
2020-Sep-13 15:30N 54°20' E 010°10'1010.5
2020-Sep-13 14:30N 54°28' E 010°21'1211.6
2020-Sep-13 13:30N 54°31' E 010°41'35 7.8
2020-Sep-13 09:00N 54°19' E 011°37'2 4.8
2020-Sep-13 08:30N 54°17' E 011°37'16 4.6
2020-Sep-13 05:00N 54°19' E 012°04'3 5.3
2020-Sep-13 04:29N 54°19' E 012°09'1 1.1
2020-Sep-13 04:00N 54°19' E 012°10'1 0.3
2020-Sep-13 02:00N 54°19' E 012°11'2 0.7
2020-Sep-12 23:29N 54°20' E 012°13'1 0.4
2020-Sep-12 20:41N 54°21' E 012°14'0 1.0
2020-Sep-12 20:30N 54°21' E 012°15'16 5.1
2020-Sep-12 17:29N 54°33' E 012°32'60 4.5
2020-Sep-12 04:01N 54°26' E 014°15'40 6.7
2020-Sep-11 22:02N 54°53' E 015°05'87 3.3
2020-Sep-10 19:29N 54°35' E 012°39'49 9.9
2020-Sep-10 14:30N 54°08' E 011°27'15 4.8
2020-Sep-10 11:22N 54°03' E 011°03'2 4.5
2020-Sep-10 10:58N 54°02' E 011°01'7 2.4
2020-Sep-10 08:00N 54°08' E 011°08'11 3.6
2020-Sep-10 05:00N 54°17' E 011°15'5 3.1
2020-Sep-10 03:30N 54°20' E 011°08'0 0.0
2020-Sep-10 01:26N 54°20' E 011°08'  
Track history (hours):
 
Tides and Currents Weather Stations Pressure Air Temp Water Temp Dewpoint Dewpoint Depression Visibility Wind Speed Wind Dir Waves Ship Positions

Oceanographic research ship Alkor (Germany)

Ship's website: http://www.briese.de/

Detailed information on ship capabilities available from University of Delaware's Ocean Information Center.

Last reported at 2020-Sep-20 00:00 UTC. Time now 2020-Sep-20 02:13 UTC.
Position N 55°09' E 015°19'.

Length 55 m; draft 4.2 m.

Type: Ship. MMSI: 211216512.

Date/timePositionNaut miles runAvg speedWind from/ knotsBaromVisibWave heightAir tempDewpointWater temp
2020-Sep-20 00:00N 55°09' E 015°19'14 4.0
2020-Sep-19 20:31N 55°20' E 015°02'6 4.0
2020-Sep-19 18:58N 55°24' E 014°55'4 2.5
2020-Sep-19 17:31N 55°26' E 014°49'3 2.5
2020-Sep-19 16:30N 55°23' E 014°51'3 1.2
2020-Sep-19 13:59N 55°26' E 014°50'12 4.0
2020-Sep-19 11:00N 55°17' E 014°37'4 4.0
2020-Sep-19 10:01N 55°14' E 014°33'10 4.0
2020-Sep-19 07:26N 55°06' E 014°22'2 4.1
2020-Sep-19 07:00N 55°04' E 014°20'63 5.7
2020-Sep-18 20:00N 54°40' E 012°40'8 6.8
2020-Sep-18 18:53N 54°35' E 012°29'6 6.7
2020-Sep-18 18:00N 54°32' E 012°20'21 7.0
2020-Sep-18 15:00N 54°22' E 011°48'7 4.9
2020-Sep-18 13:30N 54°22' E 011°36'11 3.7
2020-Sep-18 10:31N 54°29' E 011°21'3210.6
2020-Sep-18 07:30N 54°29' E 010°26'611.2
2020-Sep-18 07:01N 54°27' E 010°17'8 3.7
2020-Sep-18 04:51N 54°20' E 010°11'0 0.0
2020-Sep-18 03:00N 54°20' E 010°11'0 0.0
2020-Sep-18 01:24N 54°20' E 010°11'0 0.0
2020-Sep-18 00:54N 54°20' E 010°11'0 0.0
2020-Sep-17 19:30N 54°20' E 010°11'0 0.0
2020-Sep-17 17:00N 54°20' E 010°11'0 0.0
2020-Sep-17 15:30N 54°20' E 010°11'0 0.0
2020-Sep-17 14:30N 54°20' E 010°11'0 0.0
2020-Sep-17 11:51N 54°20' E 010°11'0 0.0
2020-Sep-17 07:54N 54°20' E 010°11'0 0.0
2020-Sep-17 07:27N 54°20' E 010°11'0 0.0
2020-Sep-17 06:57N 54°20' E 010°11'0 0.0
2020-Sep-17 06:27N 54°20' E 010°11'1 0.3
2020-Sep-17 03:29N 54°20' E 010°09'0 0.0
2020-Sep-17 02:50N 54°20' E 010°09'0 0.0
2020-Sep-17 01:20N 54°20' E 010°09'0 0.0
2020-Sep-17 00:53N 54°20' E 010°09'0 0.0
2020-Sep-17 00:23N 54°20' E 010°09'0 0.0
2020-Sep-16 23:50N 54°20' E 010°09'0 0.0
2020-Sep-16 20:26N 54°20' E 010°09'0 0.0
2020-Sep-16 18:26N 54°20' E 010°09'0 0.0
2020-Sep-16 17:56N 54°20' E 010°09'0 0.0
2020-Sep-16 16:59N 54°20' E 010°09'0 0.0
2020-Sep-16 16:26N 54°20' E 010°09'0 0.0
2020-Sep-16 11:59N 54°20' E 010°09'0 0.0
2020-Sep-16 06:56N 54°20' E 010°09'0 0.0
2020-Sep-16 04:59N 54°20' E 010°09'0 0.0
2020-Sep-16 04:26N 54°20' E 010°09'0 0.0
2020-Sep-16 03:59N 54°20' E 010°09'0 0.0
2020-Sep-16 02:59N 54°20' E 010°09'0 0.0
2020-Sep-15 23:59N 54°20' E 010°09'0 0.0
2020-Sep-15 23:29N 54°20' E 010°09'0 0.0
2020-Sep-15 22:29N 54°20' E 010°09'0 0.0
2020-Sep-15 20:29N 54°20' E 010°09'0 0.0
2020-Sep-15 13:56N 54°20' E 010°09'0 0.0
2020-Sep-15 13:26N 54°20' E 010°09'0 0.0
2020-Sep-15 12:00N 54°20' E 010°09'0 0.0
2020-Sep-15 09:30N 54°20' E 010°09'0 0.0
2020-Sep-15 07:30N 54°20' E 010°09'1 0.3
2020-Sep-15 05:29N 54°19' E 010°09'0 0.0
2020-Sep-15 02:59N 54°19' E 010°09'0 0.0
2020-Sep-15 02:29N 54°19' E 010°09'0 0.0
2020-Sep-14 20:59N 54°19' E 010°09'0 0.0
2020-Sep-14 19:59N 54°19' E 010°09'0 0.0
2020-Sep-14 14:29N 54°19' E 010°09'0 0.0
2020-Sep-14 12:20N 54°19' E 010°09'0 0.0
2020-Sep-14 09:59N 54°19' E 010°09'1 0.4
2020-Sep-14 06:30N 54°20' E 010°11'1 0.8
2020-Sep-14 05:31N 54°20' E 010°09'0 0.3
2020-Sep-14 04:53N 54°20' E 010°09'0 0.0
2020-Sep-14 03:53N 54°20' E 010°09'0 0.0
2020-Sep-14 03:23N 54°20' E 010°09'0 0.0
2020-Sep-14 02:53N 54°20' E 010°09'0 0.0
2020-Sep-14 02:23N 54°20' E 010°09'0 0.0
2020-Sep-14 00:56N 54°20' E 010°09'0 0.0
2020-Sep-13 22:29N 54°20' E 010°09'0 0.0
2020-Sep-13 21:59N 54°20' E 010°09'0 0.0
2020-Sep-13 21:29N 54°20' E 010°09'0 0.0
2020-Sep-13 15:59N 54°20' E 010°09'1 1.5
2020-Sep-13 15:30N 54°20' E 010°10'1010.5
2020-Sep-13 14:30N 54°28' E 010°21'1211.6
2020-Sep-13 13:30N 54°31' E 010°41'35 7.8
2020-Sep-13 09:00N 54°19' E 011°37'2 4.8
2020-Sep-13 08:30N 54°17' E 011°37'16 4.6
2020-Sep-13 05:00N 54°19' E 012°04'3 5.3
2020-Sep-13 04:29N 54°19' E 012°09'1 1.1
2020-Sep-13 04:00N 54°19' E 012°10'1 0.3
2020-Sep-13 02:00N 54°19' E 012°11'2 0.7
2020-Sep-12 23:29N 54°20' E 012°13'1 0.4
2020-Sep-12 20:41N 54°21' E 012°14'0 1.0
2020-Sep-12 20:30N 54°21' E 012°15'16 5.1
2020-Sep-12 17:29N 54°33' E 012°32'60 4.5
2020-Sep-12 04:01N 54°26' E 014°15'40 6.7
2020-Sep-11 22:02N 54°53' E 015°05'87 3.3
2020-Sep-10 19:29N 54°35' E 012°39'49 9.9
2020-Sep-10 14:30N 54°08' E 011°27'15 4.8
2020-Sep-10 11:22N 54°03' E 011°03'2 4.5
2020-Sep-10 10:58N 54°02' E 011°01'7 2.4
2020-Sep-10 08:00N 54°08' E 011°08'11 3.6
2020-Sep-10 05:00N 54°17' E 011°15'5 3.1
2020-Sep-10 03:30N 54°20' E 011°08'0 0.0
2020-Sep-10 01:26N 54°20' E 011°08'  

Dump ship's entire track history